sensor_id;sensor_type;location;lat;lon;timestamp;temperature;humidity
66312;HTU21D;53114;51.138;6.008;2024-02-04T00:00:50;10.83;118.99
66312;HTU21D;53114;51.138;6.008;2024-02-04T00:03:20;10.86;118.99
66312;HTU21D;53114;51.138;6.008;2024-02-04T00:05:49;10.86;118.99
66312;HTU21D;53114;51.138;6.008;2024-02-04T00:08:17;10.83;118.99
66312;HTU21D;53114;51.138;6.008;2024-02-04T00:10:43;10.85;118.99
66312;HTU21D;53114;51.138;6.008;2024-02-04T00:13:09;10.88;118.99
66312;HTU21D;53114;51.138;6.008;2024-02-04T00:15:35;10.87;118.99
66312;HTU21D;53114;51.138;6.008;2024-02-04T00:18:01;10.88;118.99
66312;HTU21D;53114;51.138;6.008;2024-02-04T00:20:27;10.87;118.99
66312;HTU21D;53114;51.138;6.008;2024-02-04T00:22:55;10.89;118.99
66312;HTU21D;53114;51.138;6.008;2024-02-04T00:25:23;10.88;118.99
66312;HTU21D;53114;51.138;6.008;2024-02-04T00:27:49;10.90;118.99
66312;HTU21D;53114;51.138;6.008;2024-02-04T00:30:15;10.93;118.99
66312;HTU21D;53114;51.138;6.008;2024-02-04T00:32:41;10.93;118.99
66312;HTU21D;53114;51.138;6.008;2024-02-04T00:35:07;10.93;118.99
66312;HTU21D;53114;51.138;6.008;2024-02-04T00:37:33;10.90;118.99
66312;HTU21D;53114;51.138;6.008;2024-02-04T00:39:59;10.88;118.99
66312;HTU21D;53114;51.138;6.008;2024-02-04T00:42:25;10.92;118.99
66312;HTU21D;53114;51.138;6.008;2024-02-04T00:44:52;10.93;118.99
66312;HTU21D;53114;51.138;6.008;2024-02-04T00:47:18;10.94;118.99
66312;HTU21D;53114;51.138;6.008;2024-02-04T00:49:46;10.93;118.99
66312;HTU21D;53114;51.138;6.008;2024-02-04T00:52:12;10.94;118.99
66312;HTU21D;53114;51.138;6.008;2024-02-04T00:54:38;10.95;118.99
66312;HTU21D;53114;51.138;6.008;2024-02-04T00:57:04;10.89;118.99
66312;HTU21D;53114;51.138;6.008;2024-02-04T00:59:30;10.93;118.99
66312;HTU21D;53114;51.138;6.008;2024-02-04T01:01:56;10.93;118.99
66312;HTU21D;53114;51.138;6.008;2024-02-04T01:04:23;10.93;118.99
66312;HTU21D;53114;51.138;6.008;2024-02-04T01:06:49;10.95;118.99
66312;HTU21D;53114;51.138;6.008;2024-02-04T01:09:15;10.93;118.99
66312;HTU21D;53114;51.138;6.008;2024-02-04T01:11:40;10.94;118.99
66312;HTU21D;53114;51.138;6.008;2024-02-04T01:14:06;10.94;118.99
66312;HTU21D;53114;51.138;6.008;2024-02-04T01:16:32;10.97;118.99
66312;HTU21D;53114;51.138;6.008;2024-02-04T01:18:58;10.96;118.99
66312;HTU21D;53114;51.138;6.008;2024-02-04T01:21:25;10.97;118.99
66312;HTU21D;53114;51.138;6.008;2024-02-04T01:23:52;10.99;118.99
66312;HTU21D;53114;51.138;6.008;2024-02-04T01:26:18;11.01;118.99
66312;HTU21D;53114;51.138;6.008;2024-02-04T01:28:44;11.04;118.99
66312;HTU21D;53114;51.138;6.008;2024-02-04T01:31:13;11.02;118.99
66312;HTU21D;53114;51.138;6.008;2024-02-04T01:33:41;11.04;118.99
66312;HTU21D;53114;51.138;6.008;2024-02-04T01:36:07;11.07;118.99
66312;HTU21D;53114;51.138;6.008;2024-02-04T01:38:33;11.05;118.99
66312;HTU21D;53114;51.138;6.008;2024-02-04T01:41:03;11.04;118.99
66312;HTU21D;53114;51.138;6.008;2024-02-04T01:43:30;11.07;118.99
66312;HTU21D;53114;51.138;6.008;2024-02-04T01:45:58;11.09;118.99
66312;HTU21D;53114;51.138;6.008;2024-02-04T01:48:24;11.10;118.99
66312;HTU21D;53114;51.138;6.008;2024-02-04T01:50:54;11.11;118.99
66312;HTU21D;53114;51.138;6.008;2024-02-04T01:53:26;11.12;118.99
66312;HTU21D;53114;51.138;6.008;2024-02-04T01:55:52;11.11;118.99
66312;HTU21D;53114;51.138;6.008;2024-02-04T01:58:21;11.12;118.99
66312;HTU21D;53114;51.138;6.008;2024-02-04T02:00:48;11.12;118.99
66312;HTU21D;53114;51.138;6.008;2024-02-04T02:03:15;11.15;118.99
66312;HTU21D;53114;51.138;6.008;2024-02-04T02:05:44;11.15;118.99
66312;HTU21D;53114;51.138;6.008;2024-02-04T02:08:11;11.16;118.99
66312;HTU21D;53114;51.138;6.008;2024-02-04T02:10:38;11.17;118.99
66312;HTU21D;53114;51.138;6.008;2024-02-04T02:13:20;11.22;118.99
66312;HTU21D;53114;51.138;6.008;2024-02-04T02:15:54;11.24;118.99
66312;HTU21D;53114;51.138;6.008;2024-02-04T02:18:27;11.20;118.99
66312;HTU21D;53114;51.138;6.008;2024-02-04T02:24:02;11.25;118.99
66312;HTU21D;53114;51.138;6.008;2024-02-04T02:26:31;11.25;118.99
66312;HTU21D;53114;51.138;6.008;2024-02-04T02:28:57;11.25;118.99
66312;HTU21D;53114;51.138;6.008;2024-02-04T02:31:24;11.25;118.99
66312;HTU21D;53114;51.138;6.008;2024-02-04T02:33:51;11.27;118.99
66312;HTU21D;53114;51.138;6.008;2024-02-04T02:36:21;11.28;118.99
66312;HTU21D;53114;51.138;6.008;2024-02-04T02:39:34;11.29;118.99
66312;HTU21D;53114;51.138;6.008;2024-02-04T02:42:04;11.30;118.99
66312;HTU21D;53114;51.138;6.008;2024-02-04T02:44:32;11.28;118.99
66312;HTU21D;53114;51.138;6.008;2024-02-04T02:47:02;11.28;118.99
66312;HTU21D;53114;51.138;6.008;2024-02-04T02:49:29;11.29;118.99
66312;HTU21D;53114;51.138;6.008;2024-02-04T02:51:55;11.29;118.99
66312;HTU21D;53114;51.138;6.008;2024-02-04T02:54:21;11.31;118.99
66312;HTU21D;53114;51.138;6.008;2024-02-04T02:56:47;11.31;118.99
66312;HTU21D;53114;51.138;6.008;2024-02-04T02:59:14;11.31;118.99
66312;HTU21D;53114;51.138;6.008;2024-02-04T03:01:40;11.33;118.99
66312;HTU21D;53114;51.138;6.008;2024-02-04T03:04:06;11.34;118.99
66312;HTU21D;53114;51.138;6.008;2024-02-04T03:06:32;11.37;118.99
66312;HTU21D;53114;51.138;6.008;2024-02-04T03:08:58;11.37;118.99
66312;HTU21D;53114;51.138;6.008;2024-02-04T03:11:25;11.41;118.99
66312;HTU21D;53114;51.138;6.008;2024-02-04T03:13:51;11.42;118.99
66312;HTU21D;53114;51.138;6.008;2024-02-04T03:16:17;11.43;118.99
66312;HTU21D;53114;51.138;6.008;2024-02-04T03:18:43;11.45;118.99
66312;HTU21D;53114;51.138;6.008;2024-02-04T03:21:13;11.46;118.99
66312;HTU21D;53114;51.138;6.008;2024-02-04T03:23:43;11.47;118.99
66312;HTU21D;53114;51.138;6.008;2024-02-04T03:26:09;11.49;118.99
66312;HTU21D;53114;51.138;6.008;2024-02-04T03:28:38;11.48;118.99
66312;HTU21D;53114;51.138;6.008;2024-02-04T03:31:05;11.51;118.99
66312;HTU21D;53114;51.138;6.008;2024-02-04T03:33:31;11.52;118.99
66312;HTU21D;53114;51.138;6.008;2024-02-04T03:35:58;11.52;118.99
66312;HTU21D;53114;51.138;6.008;2024-02-04T03:38:24;11.52;118.99
66312;HTU21D;53114;51.138;6.008;2024-02-04T03:40:51;11.53;118.99
66312;HTU21D;53114;51.138;6.008;2024-02-04T03:43:17;11.53;118.99
66312;HTU21D;53114;51.138;6.008;2024-02-04T03:45:43;11.54;118.99
66312;HTU21D;53114;51.138;6.008;2024-02-04T03:48:09;11.57;118.99
66312;HTU21D;53114;51.138;6.008;2024-02-04T03:50:36;11.57;118.99
66312;HTU21D;53114;51.138;6.008;2024-02-04T03:53:02;11.55;118.99
66312;HTU21D;53114;51.138;6.008;2024-02-04T03:55:28;11.55;118.99
66312;HTU21D;53114;51.138;6.008;2024-02-04T03:57:55;11.54;118.99
66312;HTU21D;53114;51.138;6.008;2024-02-04T04:00:22;11.53;118.99
66312;HTU21D;53114;51.138;6.008;2024-02-04T04:02:48;11.54;118.99
66312;HTU21D;53114;51.138;6.008;2024-02-04T04:05:14;11.55;118.99
66312;HTU21D;53114;51.138;6.008;2024-02-04T04:07:40;11.56;118.99
66312;HTU21D;53114;51.138;6.008;2024-02-04T04:10:06;11.56;118.99
66312;HTU21D;53114;51.138;6.008;2024-02-04T04:12:32;11.58;118.99
66312;HTU21D;53114;51.138;6.008;2024-02-04T04:14:58;11.60;118.99
66312;HTU21D;53114;51.138;6.008;2024-02-04T04:17:25;11.61;118.99
66312;HTU21D;53114;51.138;6.008;2024-02-04T04:19:55;11.61;118.99
66312;HTU21D;53114;51.138;6.008;2024-02-04T04:22:21;11.63;118.99
66312;HTU21D;53114;51.138;6.008;2024-02-04T04:24:47;11.63;118.99
66312;HTU21D;53114;51.138;6.008;2024-02-04T04:27:13;11.63;118.99
66312;HTU21D;53114;51.138;6.008;2024-02-04T04:29:39;11.64;118.99
66312;HTU21D;53114;51.138;6.008;2024-02-04T04:32:05;11.66;118.99
66312;HTU21D;53114;51.138;6.008;2024-02-04T04:34:31;11.67;118.99
66312;HTU21D;53114;51.138;6.008;2024-02-04T04:36:57;11.69;118.99
66312;HTU21D;53114;51.138;6.008;2024-02-04T04:39:23;11.68;118.99
66312;HTU21D;53114;51.138;6.008;2024-02-04T04:41:49;11.70;118.99
66312;HTU21D;53114;51.138;6.008;2024-02-04T04:44:15;11.71;118.99
66312;HTU21D;53114;51.138;6.008;2024-02-04T04:46:41;11.73;118.99
66312;HTU21D;53114;51.138;6.008;2024-02-04T04:49:07;11.72;118.99
66312;HTU21D;53114;51.138;6.008;2024-02-04T04:51:33;11.71;118.99
66312;HTU21D;53114;51.138;6.008;2024-02-04T04:53:59;11.68;118.99
66312;HTU21D;53114;51.138;6.008;2024-02-04T04:56:25;11.67;118.99
66312;HTU21D;53114;51.138;6.008;2024-02-04T04:58:51;11.64;118.99
66312;HTU21D;53114;51.138;6.008;2024-02-04T05:01:17;11.62;118.99
66312;HTU21D;53114;51.138;6.008;2024-02-04T05:03:44;11.64;118.99
66312;HTU21D;53114;51.138;6.008;2024-02-04T05:06:10;11.64;118.99
66312;HTU21D;53114;51.138;6.008;2024-02-04T05:08:36;11.64;118.99
66312;HTU21D;53114;51.138;6.008;2024-02-04T05:11:01;11.63;118.99
66312;HTU21D;53114;51.138;6.008;2024-02-04T05:13:27;11.60;118.99
66312;HTU21D;53114;51.138;6.008;2024-02-04T05:15:53;11.58;118.99
66312;HTU21D;53114;51.138;6.008;2024-02-04T05:18:19;11.63;118.99
66312;HTU21D;53114;51.138;6.008;2024-02-04T05:20:45;11.59;118.99
66312;HTU21D;53114;51.138;6.008;2024-02-04T05:23:11;11.61;118.99
66312;HTU21D;53114;51.138;6.008;2024-02-04T05:25:37;11.61;118.99
66312;HTU21D;53114;51.138;6.008;2024-02-04T05:28:03;11.63;118.99
66312;HTU21D;53114;51.138;6.008;2024-02-04T05:30:30;11.64;118.99
66312;HTU21D;53114;51.138;6.008;2024-02-04T05:32:56;11.64;118.99
66312;HTU21D;53114;51.138;6.008;2024-02-04T05:35:22;11.64;118.99
66312;HTU21D;53114;51.138;6.008;2024-02-04T05:37:47;11.69;118.99
66312;HTU21D;53114;51.138;6.008;2024-02-04T05:40:14;11.69;118.99
66312;HTU21D;53114;51.138;6.008;2024-02-04T05:42:42;11.71;118.99
66312;HTU21D;53114;51.138;6.008;2024-02-04T05:45:11;11.73;118.99
66312;HTU21D;53114;51.138;6.008;2024-02-04T05:47:37;11.75;118.99
66312;HTU21D;53114;51.138;6.008;2024-02-04T05:50:04;11.76;118.99
66312;HTU21D;53114;51.138;6.008;2024-02-04T05:52:30;11.72;118.99
66312;HTU21D;53114;51.138;6.008;2024-02-04T05:54:56;11.71;118.99
66312;HTU21D;53114;51.138;6.008;2024-02-04T05:57:22;11.69;118.99
66312;HTU21D;53114;51.138;6.008;2024-02-04T05:59:48;11.70;118.99
66312;HTU21D;53114;51.138;6.008;2024-02-04T06:02:14;11.71;118.99
66312;HTU21D;53114;51.138;6.008;2024-02-04T06:04:40;11.70;118.99
66312;HTU21D;53114;51.138;6.008;2024-02-04T06:07:06;11.70;118.99
66312;HTU21D;53114;51.138;6.008;2024-02-04T06:09:33;11.70;118.99
66312;HTU21D;53114;51.138;6.008;2024-02-04T06:11:59;11.70;118.99
66312;HTU21D;53114;51.138;6.008;2024-02-04T06:14:25;11.70;118.99
66312;HTU21D;53114;51.138;6.008;2024-02-04T06:16:51;11.68;118.99
66312;HTU21D;53114;51.138;6.008;2024-02-04T06:19:19;11.71;118.99
66312;HTU21D;53114;51.138;6.008;2024-02-04T06:21:45;11.72;118.99
66312;HTU21D;53114;51.138;6.008;2024-02-04T06:24:11;11.69;118.99
66312;HTU21D;53114;51.138;6.008;2024-02-04T06:26:38;11.68;118.99
66312;HTU21D;53114;51.138;6.008;2024-02-04T06:29:05;11.66;118.99
66312;HTU21D;53114;51.138;6.008;2024-02-04T06:31:30;11.59;118.99
66312;HTU21D;53114;51.138;6.008;2024-02-04T06:33:56;11.57;118.99
66312;HTU21D;53114;51.138;6.008;2024-02-04T06:36:22;11.54;118.99
66312;HTU21D;53114;51.138;6.008;2024-02-04T06:38:48;11.53;118.99
66312;HTU21D;53114;51.138;6.008;2024-02-04T06:41:17;11.54;118.99
66312;HTU21D;53114;51.138;6.008;2024-02-04T06:43:43;11.52;118.99
66312;HTU21D;53114;51.138;6.008;2024-02-04T06:46:09;11.53;118.99
66312;HTU21D;53114;51.138;6.008;2024-02-04T06:48:35;11.51;118.99
66312;HTU21D;53114;51.138;6.008;2024-02-04T06:51:01;11.49;118.99
66312;HTU21D;53114;51.138;6.008;2024-02-04T06:53:27;11.46;118.99
66312;HTU21D;53114;51.138;6.008;2024-02-04T06:55:53;11.45;118.99
66312;HTU21D;53114;51.138;6.008;2024-02-04T06:58:19;11.45;118.99
66312;HTU21D;53114;51.138;6.008;2024-02-04T07:00:46;11.45;118.99
66312;HTU21D;53114;51.138;6.008;2024-02-04T07:03:12;11.44;118.99
66312;HTU21D;53114;51.138;6.008;2024-02-04T07:05:38;11.43;118.99
66312;HTU21D;53114;51.138;6.008;2024-02-04T07:08:04;11.43;118.99
66312;HTU21D;53114;51.138;6.008;2024-02-04T07:10:30;11.42;118.99
66312;HTU21D;53114;51.138;6.008;2024-02-04T07:12:56;11.40;118.99
66312;HTU21D;53114;51.138;6.008;2024-02-04T07:15:22;11.43;118.99
66312;HTU21D;53114;51.138;6.008;2024-02-04T07:17:48;11.43;118.99
66312;HTU21D;53114;51.138;6.008;2024-02-04T07:20:14;11.46;118.99
66312;HTU21D;53114;51.138;6.008;2024-02-04T07:22:40;11.46;118.99
66312;HTU21D;53114;51.138;6.008;2024-02-04T07:25:06;11.47;118.99
66312;HTU21D;53114;51.138;6.008;2024-02-04T07:27:33;11.46;118.99
66312;HTU21D;53114;51.138;6.008;2024-02-04T07:29:59;11.47;118.99
66312;HTU21D;53114;51.138;6.008;2024-02-04T07:32:25;11.45;118.99
66312;HTU21D;53114;51.138;6.008;2024-02-04T07:34:51;11.47;118.99
66312;HTU21D;53114;51.138;6.008;2024-02-04T07:37:17;11.49;118.99
66312;HTU21D;53114;51.138;6.008;2024-02-04T07:39:43;11.51;118.99
66312;HTU21D;53114;51.138;6.008;2024-02-04T07:42:09;11.53;118.99
66312;HTU21D;53114;51.138;6.008;2024-02-04T07:44:35;11.49;118.99
66312;HTU21D;53114;51.138;6.008;2024-02-04T07:47:01;11.51;118.99
66312;HTU21D;53114;51.138;6.008;2024-02-04T07:49:27;11.48;118.99
66312;HTU21D;53114;51.138;6.008;2024-02-04T07:51:53;11.51;118.99
66312;HTU21D;53114;51.138;6.008;2024-02-04T07:54:19;11.49;118.99
66312;HTU21D;53114;51.138;6.008;2024-02-04T07:56:46;11.53;118.99
66312;HTU21D;53114;51.138;6.008;2024-02-04T07:59:12;11.54;118.99
66312;HTU21D;53114;51.138;6.008;2024-02-04T08:01:38;11.57;118.99
66312;HTU21D;53114;51.138;6.008;2024-02-04T08:04:04;11.59;118.99
66312;HTU21D;53114;51.138;6.008;2024-02-04T08:06:34;11.61;118.99
66312;HTU21D;53114;51.138;6.008;2024-02-04T08:09:00;11.64;118.99
66312;HTU21D;53114;51.138;6.008;2024-02-04T08:11:26;11.67;118.99
66312;HTU21D;53114;51.138;6.008;2024-02-04T08:13:52;11.72;118.99
66312;HTU21D;53114;51.138;6.008;2024-02-04T08:16:18;11.76;118.99
66312;HTU21D;53114;51.138;6.008;2024-02-04T08:18:44;11.79;118.99
66312;HTU21D;53114;51.138;6.008;2024-02-04T08:21:12;11.82;118.99
66312;HTU21D;53114;51.138;6.008;2024-02-04T08:23:39;11.82;118.99
66312;HTU21D;53114;51.138;6.008;2024-02-04T08:26:07;11.83;118.99
66312;HTU21D;53114;51.138;6.008;2024-02-04T08:28:34;11.85;118.99
66312;HTU21D;53114;51.138;6.008;2024-02-04T08:31:00;11.85;118.99
66312;HTU21D;53114;51.138;6.008;2024-02-04T08:33:26;11.89;118.99
66312;HTU21D;53114;51.138;6.008;2024-02-04T08:35:52;11.88;118.99
66312;HTU21D;53114;51.138;6.008;2024-02-04T08:38:18;11.90;118.99
66312;HTU21D;53114;51.138;6.008;2024-02-04T08:40:44;11.94;118.99
66312;HTU21D;53114;51.138;6.008;2024-02-04T08:43:10;11.96;118.99
66312;HTU21D;53114;51.138;6.008;2024-02-04T08:45:36;11.97;118.99
66312;HTU21D;53114;51.138;6.008;2024-02-04T08:48:02;11.98;118.99
66312;HTU21D;53114;51.138;6.008;2024-02-04T08:50:29;11.94;118.99
66312;HTU21D;53114;51.138;6.008;2024-02-04T08:52:55;11.97;118.99
66312;HTU21D;53114;51.138;6.008;2024-02-04T08:55:21;12.00;118.99
66312;HTU21D;53114;51.138;6.008;2024-02-04T08:57:46;12.04;118.99
66312;HTU21D;53114;51.138;6.008;2024-02-04T09:00:14;12.12;118.99
66312;HTU21D;53114;51.138;6.008;2024-02-04T09:02:41;12.25;118.99
66312;HTU21D;53114;51.138;6.008;2024-02-04T09:05:07;12.42;118.99
66312;HTU21D;53114;51.138;6.008;2024-02-04T09:07:33;12.58;118.99
66312;HTU21D;53114;51.138;6.008;2024-02-04T09:09:59;12.61;118.99
66312;HTU21D;53114;51.138;6.008;2024-02-04T09:12:27;12.50;118.99
66312;HTU21D;53114;51.138;6.008;2024-02-04T09:14:53;12.42;118.99
66312;HTU21D;53114;51.138;6.008;2024-02-04T09:17:19;12.41;118.99
66312;HTU21D;53114;51.138;6.008;2024-02-04T09:19:45;12.36;118.99
66312;HTU21D;53114;51.138;6.008;2024-02-04T09:22:14;12.33;118.99
66312;HTU21D;53114;51.138;6.008;2024-02-04T09:24:40;12.32;118.99
66312;HTU21D;53114;51.138;6.008;2024-02-04T09:27:06;12.30;118.99
66312;HTU21D;53114;51.138;6.008;2024-02-04T09:29:31;12.29;118.99
66312;HTU21D;53114;51.138;6.008;2024-02-04T09:31:57;12.28;118.99
66312;HTU21D;53114;51.138;6.008;2024-02-04T09:34:23;12.27;118.99
66312;HTU21D;53114;51.138;6.008;2024-02-04T09:36:49;12.22;118.99
66312;HTU21D;53114;51.138;6.008;2024-02-04T09:39:16;12.26;118.99
66312;HTU21D;53114;51.138;6.008;2024-02-04T09:41:43;12.26;118.99
66312;HTU21D;53114;51.138;6.008;2024-02-04T09:44:09;12.28;118.99
66312;HTU21D;53114;51.138;6.008;2024-02-04T09:46:35;12.29;118.99
66312;HTU21D;53114;51.138;6.008;2024-02-04T09:49:01;12.32;118.99
66312;HTU21D;53114;51.138;6.008;2024-02-04T09:51:29;12.35;118.99
66312;HTU21D;53114;51.138;6.008;2024-02-04T09:54:00;12.37;118.99
66312;HTU21D;53114;51.138;6.008;2024-02-04T09:56:30;12.40;118.99
66312;HTU21D;53114;51.138;6.008;2024-02-04T09:58:57;12.46;118.99
66312;HTU21D;53114;51.138;6.008;2024-02-04T10:01:23;12.53;118.99
66312;HTU21D;53114;51.138;6.008;2024-02-04T10:03:49;12.55;118.99
66312;HTU21D;53114;51.138;6.008;2024-02-04T10:06:15;12.55;118.99
66312;HTU21D;53114;51.138;6.008;2024-02-04T10:08:42;12.57;118.99
66312;HTU21D;53114;51.138;6.008;2024-02-04T10:11:09;12.56;118.99
66312;HTU21D;53114;51.138;6.008;2024-02-04T10:13:46;12.52;118.99
66312;HTU21D;53114;51.138;6.008;2024-02-04T10:16:13;12.49;118.99
66312;HTU21D;53114;51.138;6.008;2024-02-04T10:18:44;12.52;118.99
66312;HTU21D;53114;51.138;6.008;2024-02-04T10:21:17;12.49;118.99
66312;HTU21D;53114;51.138;6.008;2024-02-04T10:23:44;12.48;118.99
66312;HTU21D;53114;51.138;6.008;2024-02-04T10:26:10;12.42;118.99
66312;HTU21D;53114;51.138;6.008;2024-02-04T10:28:38;12.42;118.99
66312;HTU21D;53114;51.138;6.008;2024-02-04T10:31:05;12.40;118.99
66312;HTU21D;53114;51.138;6.008;2024-02-04T10:33:31;12.42;118.99
66312;HTU21D;53114;51.138;6.008;2024-02-04T10:35:57;12.47;118.99
66312;HTU21D;53114;51.138;6.008;2024-02-04T10:38:23;12.48;118.99
66312;HTU21D;53114;51.138;6.008;2024-02-04T10:40:54;12.52;118.99
66312;HTU21D;53114;51.138;6.008;2024-02-04T10:43:24;12.56;118.99
66312;HTU21D;53114;51.138;6.008;2024-02-04T10:45:56;12.59;118.99
66312;HTU21D;53114;51.138;6.008;2024-02-04T10:48:27;12.59;118.99
66312;HTU21D;53114;51.138;6.008;2024-02-04T10:50:55;12.57;118.99
66312;HTU21D;53114;51.138;6.008;2024-02-04T10:53:25;12.47;118.99
66312;HTU21D;53114;51.138;6.008;2024-02-04T10:55:56;12.42;118.99
66312;HTU21D;53114;51.138;6.008;2024-02-04T10:58:25;12.36;118.99
66312;HTU21D;53114;51.138;6.008;2024-02-04T11:00:51;12.33;118.99
66312;HTU21D;53114;51.138;6.008;2024-02-04T11:03:18;12.30;118.99
66312;HTU21D;53114;51.138;6.008;2024-02-04T11:05:44;12.20;118.99
66312;HTU21D;53114;51.138;6.008;2024-02-04T11:08:12;12.22;118.99
66312;HTU21D;53114;51.138;6.008;2024-02-04T11:10:39;12.23;118.99
66312;HTU21D;53114;51.138;6.008;2024-02-04T11:13:08;12.23;118.99
66312;HTU21D;53114;51.138;6.008;2024-02-04T11:15:37;12.23;118.99
66312;HTU21D;53114;51.138;6.008;2024-02-04T11:27:12;12.31;118.99
66312;HTU21D;53114;51.138;6.008;2024-02-04T11:29:39;12.35;118.99
66312;HTU21D;53114;51.138;6.008;2024-02-04T11:32:05;12.33;118.99
66312;HTU21D;53114;51.138;6.008;2024-02-04T11:34:33;12.29;118.99
66312;HTU21D;53114;51.138;6.008;2024-02-04T11:37:00;12.29;118.99
66312;HTU21D;53114;51.138;6.008;2024-02-04T11:39:26;12.28;118.99
66312;HTU21D;53114;51.138;6.008;2024-02-04T11:41:55;12.29;118.99
66312;HTU21D;53114;51.138;6.008;2024-02-04T11:46:48;12.29;118.99
66312;HTU21D;53114;51.138;6.008;2024-02-04T11:49:15;12.30;118.99
66312;HTU21D;53114;51.138;6.008;2024-02-04T11:51:51;12.29;118.99
66312;HTU21D;53114;51.138;6.008;2024-02-04T11:54:19;12.28;118.99
66312;HTU21D;53114;51.138;6.008;2024-02-04T11:56:49;12.27;118.99
66312;HTU21D;53114;51.138;6.008;2024-02-04T11:59:26;12.27;118.99
66312;HTU21D;53114;51.138;6.008;2024-02-04T12:01:56;12.25;118.99
66312;HTU21D;53114;51.138;6.008;2024-02-04T12:04:23;12.26;118.99
66312;HTU21D;53114;51.138;6.008;2024-02-04T12:06:52;12.25;118.99
66312;HTU21D;53114;51.138;6.008;2024-02-04T12:09:19;12.23;118.99
66312;HTU21D;53114;51.138;6.008;2024-02-04T12:11:45;12.27;118.99
66312;HTU21D;53114;51.138;6.008;2024-02-04T12:14:15;12.31;118.99
66312;HTU21D;53114;51.138;6.008;2024-02-04T12:16:42;12.35;118.99
66312;HTU21D;53114;51.138;6.008;2024-02-04T12:19:07;12.36;118.99
66312;HTU21D;53114;51.138;6.008;2024-02-04T12:21:34;12.35;118.99
66312;HTU21D;53114;51.138;6.008;2024-02-04T12:24:02;12.37;118.99
66312;HTU21D;53114;51.138;6.008;2024-02-04T12:26:28;12.37;118.99
66312;HTU21D;53114;51.138;6.008;2024-02-04T12:28:56;12.34;118.99
66312;HTU21D;53114;51.138;6.008;2024-02-04T12:31:27;12.40;118.99
66312;HTU21D;53114;51.138;6.008;2024-02-04T12:33:58;12.46;118.99
66312;HTU21D;53114;51.138;6.008;2024-02-04T12:36:32;12.46;118.99
66312;HTU21D;53114;51.138;6.008;2024-02-04T12:39:00;12.49;118.99
66312;HTU21D;53114;51.138;6.008;2024-02-04T12:41:27;12.55;118.99
66312;HTU21D;53114;51.138;6.008;2024-02-04T12:43:55;12.60;118.99
66312;HTU21D;53114;51.138;6.008;2024-02-04T12:46:27;12.63;118.99
66312;HTU21D;53114;51.138;6.008;2024-02-04T12:48:57;12.65;118.99
66312;HTU21D;53114;51.138;6.008;2024-02-04T12:51:24;12.65;118.99
66312;HTU21D;53114;51.138;6.008;2024-02-04T12:54:04;12.66;118.99
66312;HTU21D;53114;51.138;6.008;2024-02-04T12:56:48;12.72;118.99
66312;HTU21D;53114;51.138;6.008;2024-02-04T12:59:33;12.86;118.99
66312;HTU21D;53114;51.138;6.008;2024-02-04T13:02:06;12.87;118.99
66312;HTU21D;53114;51.138;6.008;2024-02-04T13:04:36;12.87;118.99
66312;HTU21D;53114;51.138;6.008;2024-02-04T13:07:08;12.86;118.99
66312;HTU21D;53114;51.138;6.008;2024-02-04T13:09:36;12.82;118.99
66312;HTU21D;53114;51.138;6.008;2024-02-04T13:12:06;12.84;118.99
66312;HTU21D;53114;51.138;6.008;2024-02-04T13:14:39;12.81;118.99
66312;HTU21D;53114;51.138;6.008;2024-02-04T13:17:05;12.79;118.99
66312;HTU21D;53114;51.138;6.008;2024-02-04T13:19:35;12.79;118.99
66312;HTU21D;53114;51.138;6.008;2024-02-04T13:22:04;12.77;118.99
66312;HTU21D;53114;51.138;6.008;2024-02-04T13:24:32;12.79;118.99
66312;HTU21D;53114;51.138;6.008;2024-02-04T13:26:59;12.77;118.99
66312;HTU21D;53114;51.138;6.008;2024-02-04T13:29:27;12.81;118.99
66312;HTU21D;53114;51.138;6.008;2024-02-04T13:31:53;12.77;118.99
66312;HTU21D;53114;51.138;6.008;2024-02-04T13:34:19;12.78;118.99
66312;HTU21D;53114;51.138;6.008;2024-02-04T13:36:46;12.76;118.99
66312;HTU21D;53114;51.138;6.008;2024-02-04T13:39:12;12.73;118.99
66312;HTU21D;53114;51.138;6.008;2024-02-04T13:41:39;12.74;118.99
66312;HTU21D;53114;51.138;6.008;2024-02-04T13:44:05;12.75;118.99
66312;HTU21D;53114;51.138;6.008;2024-02-04T13:46:32;12.71;118.99
66312;HTU21D;53114;51.138;6.008;2024-02-04T13:48:59;12.71;118.99
66312;HTU21D;53114;51.138;6.008;2024-02-04T13:51:24;12.67;118.99
66312;HTU21D;53114;51.138;6.008;2024-02-04T13:53:51;12.70;118.99
66312;HTU21D;53114;51.138;6.008;2024-02-04T13:56:16;12.72;118.99
66312;HTU21D;53114;51.138;6.008;2024-02-04T13:58:44;12.74;118.99
66312;HTU21D;53114;51.138;6.008;2024-02-04T14:01:13;12.73;118.99
66312;HTU21D;53114;51.138;6.008;2024-02-04T14:03:41;12.74;118.99
66312;HTU21D;53114;51.138;6.008;2024-02-04T14:06:10;12.77;118.99
66312;HTU21D;53114;51.138;6.008;2024-02-04T14:08:38;12.79;118.99
66312;HTU21D;53114;51.138;6.008;2024-02-04T14:11:06;12.81;118.99
66312;HTU21D;53114;51.138;6.008;2024-02-04T14:13:33;12.82;118.99
66312;HTU21D;53114;51.138;6.008;2024-02-04T14:15:59;12.84;118.99
66312;HTU21D;53114;51.138;6.008;2024-02-04T14:18:25;12.80;118.99
66312;HTU21D;53114;51.138;6.008;2024-02-04T14:20:51;12.74;118.99
66312;HTU21D;53114;51.138;6.008;2024-02-04T14:23:17;12.74;118.99
66312;HTU21D;53114;51.138;6.008;2024-02-04T14:25:43;12.74;118.99
66312;HTU21D;53114;51.138;6.008;2024-02-04T14:28:11;12.72;118.99
66312;HTU21D;53114;51.138;6.008;2024-02-04T14:30:37;12.69;118.99
66312;HTU21D;53114;51.138;6.008;2024-02-04T14:33:04;12.71;118.99
66312;HTU21D;53114;51.138;6.008;2024-02-04T14:35:34;12.74;118.99
66312;HTU21D;53114;51.138;6.008;2024-02-04T14:38:00;12.73;118.99
66312;HTU21D;53114;51.138;6.008;2024-02-04T14:40:28;12.73;118.99
66312;HTU21D;53114;51.138;6.008;2024-02-04T14:42:58;12.76;118.99
66312;HTU21D;53114;51.138;6.008;2024-02-04T14:45:24;12.76;118.99
66312;HTU21D;53114;51.138;6.008;2024-02-04T14:47:50;12.73;118.99
66312;HTU21D;53114;51.138;6.008;2024-02-04T14:50:16;12.72;118.99
66312;HTU21D;53114;51.138;6.008;2024-02-04T14:53:01;12.72;118.99
66312;HTU21D;53114;51.138;6.008;2024-02-04T14:55:30;12.70;118.99
66312;HTU21D;53114;51.138;6.008;2024-02-04T14:57:56;12.70;118.99
66312;HTU21D;53114;51.138;6.008;2024-02-04T15:00:22;12.70;118.99
66312;HTU21D;53114;51.138;6.008;2024-02-04T15:02:50;12.75;118.99
66312;HTU21D;53114;51.138;6.008;2024-02-04T15:05:16;12.74;118.99
66312;HTU21D;53114;51.138;6.008;2024-02-04T15:07:45;12.72;118.99
66312;HTU21D;53114;51.138;6.008;2024-02-04T15:10:11;12.70;118.99
66312;HTU21D;53114;51.138;6.008;2024-02-04T15:12:38;12.71;118.99
66312;HTU21D;53114;51.138;6.008;2024-02-04T15:15:05;12.72;118.99
66312;HTU21D;53114;51.138;6.008;2024-02-04T15:17:33;12.72;118.99